createdAt,value
2018-08-17T00:00:35.283Z,94612.55
2018-08-17T00:03:04.104Z,94612.51
2018-08-17T00:05:32.852Z,94608.76
2018-08-17T00:08:01.526Z,94606.60
2018-08-17T00:10:30.218Z,94609.77
2018-08-17T00:12:58.982Z,94611.30
2018-08-17T00:15:27.653Z,94606.48
2018-08-17T00:17:56.437Z,94610.23
2018-08-17T00:20:25.144Z,94613.40
2018-08-17T00:22:53.829Z,94616.17
2018-08-17T00:25:22.579Z,94617.35
2018-08-17T00:27:51.589Z,94622.44
2018-08-17T00:30:20.383Z,94631.62
2018-08-17T00:32:49.218Z,94623.95
2018-08-17T00:35:17.927Z,94625.45
2018-08-17T00:37:46.683Z,94631.08
2018-08-17T00:40:15.380Z,94625.16
2018-08-17T00:42:44.089Z,94627.86
2018-08-17T00:45:12.827Z,94631.03
2018-08-17T00:47:41.605Z,94624.58
2018-08-17T00:50:10.345Z,94623.55
2018-08-17T00:52:39.019Z,94624.88
2018-08-17T00:55:07.956Z,94618.52
2018-08-17T00:57:36.953Z,94629.31
2018-08-17T01:00:06.787Z,94626.05
2018-08-17T01:02:35.778Z,94626.88
2018-08-17T01:05:04.597Z,94626.38
2018-08-17T01:07:33.397Z,94631.32
2018-08-17T01:10:02.206Z,94627.67
2018-08-17T01:12:30.978Z,94631.00
2018-08-17T01:14:59.658Z,94634.44
2018-08-17T01:17:28.501Z,94637.68
2018-08-17T01:19:57.238Z,94630.88
2018-08-17T01:22:25.904Z,94630.95
2018-08-17T01:24:54.611Z,94631.52
2018-08-17T01:27:23.264Z,94628.26
2018-08-17T01:29:52.242Z,94630.66
2018-08-17T01:32:21.054Z,94628.60
2018-08-17T01:34:49.744Z,94633.64
2018-08-17T01:37:18.430Z,94628.66
2018-08-17T01:39:47.137Z,94630.27
2018-08-17T01:42:15.915Z,94634.78
2018-08-17T01:44:44.650Z,94631.45
2018-08-17T01:47:13.398Z,94628.23
2018-08-17T01:49:42.120Z,94637.13
2018-08-17T01:52:10.828Z,94632.40
2018-08-17T01:54:39.457Z,94630.92
2018-08-17T01:57:08.214Z,94624.69
2018-08-17T01:59:37.022Z,94624.00
2018-08-17T02:02:05.799Z,94620.83
2018-08-17T02:04:34.477Z,94623.16
2018-08-17T02:07:03.182Z,94625.80
2018-08-17T02:09:31.905Z,94625.61
2018-08-17T02:12:00.618Z,94628.05
2018-08-17T02:14:29.284Z,94626.83
2018-08-17T02:16:57.981Z,94628.18
2018-08-17T02:19:26.704Z,94626.06
2018-08-17T02:21:55.391Z,94631.34
2018-08-17T02:24:24.105Z,94630.89
2018-08-17T02:26:52.759Z,94633.77
2018-08-17T02:29:21.443Z,94628.76
2018-08-17T02:31:50.226Z,94630.16
2018-08-17T02:34:19.111Z,94632.56
2018-08-17T02:36:47.811Z,94630.41
2018-08-17T02:39:16.554Z,94629.98
2018-08-17T02:41:46.780Z,94634.73
2018-08-17T02:44:15.457Z,94629.69
2018-08-17T02:46:44.197Z,94634.06
2018-08-17T02:49:12.877Z,94641.39
2018-08-17T02:51:41.544Z,94635.44
2018-08-17T02:54:10.313Z,94627.77
2018-08-17T02:56:39.017Z,94630.23
2018-08-17T02:59:07.709Z,94629.39
2018-08-17T03:01:36.380Z,94629.56
2018-08-17T03:04:05.092Z,94624.61
2018-08-17T03:06:33.764Z,94632.17
2018-08-17T03:09:02.461Z,94634.02
2018-08-17T03:11:31.161Z,94633.89
2018-08-17T03:14:00.051Z,94637.97
2018-08-17T03:16:28.704Z,94644.97
2018-08-17T03:18:57.430Z,94643.02
2018-08-17T03:21:26.334Z,94646.12
2018-08-17T03:23:55.177Z,94644.38
2018-08-17T03:26:24.092Z,94648.03
2018-08-17T03:28:52.968Z,94647.74
2018-08-17T03:31:21.899Z,94651.76
2018-08-17T03:33:50.701Z,94655.40
2018-08-17T03:36:19.669Z,94647.09
2018-08-17T03:38:48.406Z,94651.70
2018-08-17T03:41:17.219Z,94648.41
2018-08-17T03:43:45.885Z,94660.31
2018-08-17T03:46:14.621Z,94660.65
2018-08-17T03:48:43.309Z,94659.03
2018-08-17T03:51:12.086Z,94662.58
2018-08-17T03:53:40.848Z,94661.80
2018-08-17T03:56:09.537Z,94653.78
2018-08-17T03:58:38.250Z,94653.30
2018-08-17T04:01:06.989Z,94650.60
2018-08-17T04:03:35.693Z,94657.67
2018-08-17T04:06:04.532Z,94659.09
2018-08-17T04:08:33.193Z,94662.39
2018-08-17T04:11:01.954Z,94664.98
2018-08-17T04:13:30.612Z,94671.09
2018-08-17T04:15:59.349Z,94670.22
2018-08-17T04:18:28.100Z,94671.58
2018-08-17T04:20:56.818Z,94675.77
2018-08-17T04:23:25.479Z,94670.32
2018-08-17T04:25:54.249Z,94676.56
2018-08-17T04:28:22.938Z,94674.95
2018-08-17T04:30:51.668Z,94671.28
2018-08-17T04:33:20.410Z,94672.14
2018-08-17T04:35:49.162Z,94670.34
2018-08-17T04:38:17.868Z,94662.05
2018-08-17T04:40:46.592Z,94666.53
2018-08-17T04:43:15.249Z,94666.85
2018-08-17T04:45:44.009Z,94662.27
2018-08-17T04:48:12.669Z,94671.56
2018-08-17T04:50:41.523Z,94668.19
2018-08-17T04:53:10.253Z,94665.89
2018-08-17T04:55:38.924Z,94666.73
2018-08-17T04:58:07.657Z,94669.91
2018-08-17T05:00:36.366Z,94675.39
2018-08-17T05:03:05.188Z,94677.88
2018-08-17T05:05:33.866Z,94673.87
2018-08-17T05:08:02.529Z,94686.41
2018-08-17T05:10:31.265Z,94681.95
2018-08-17T05:13:00.054Z,94683.27
2018-08-17T05:15:28.710Z,94682.09
2018-08-17T05:17:57.372Z,94682.28
2018-08-17T05:20:26.109Z,94686.23
2018-08-17T05:25:24.422Z,94691.59
2018-08-17T05:27:53.106Z,94694.56
2018-08-17T05:30:21.814Z,94699.14
2018-08-17T05:32:50.577Z,94694.50
2018-08-17T05:35:19.302Z,94693.24
2018-08-17T05:37:48.028Z,94698.69
2018-08-17T05:40:16.738Z,94694.59
2018-08-17T05:42:45.431Z,94694.20
2018-08-17T05:45:14.134Z,94691.43
2018-08-17T05:47:42.809Z,94695.97
2018-08-17T05:50:12.709Z,94691.19
2018-08-17T05:52:41.358Z,94692.90
2018-08-17T05:55:10.061Z,94693.19
2018-08-17T05:57:38.807Z,94703.59
2018-08-17T06:00:09.358Z,94706.05
2018-08-17T06:02:38.055Z,94700.09
2018-08-17T06:05:07.959Z,94699.04
2018-08-17T06:07:36.936Z,94698.13
2018-08-17T06:10:07.318Z,94696.92
2018-08-17T06:12:36.083Z,94694.03
2018-08-17T06:15:05.931Z,94694.37
2018-08-17T06:17:34.684Z,94695.96
2018-08-17T06:20:03.852Z,94697.96
2018-08-17T06:22:32.541Z,94698.07
2018-08-17T06:25:01.239Z,94694.84
2018-08-17T06:27:29.921Z,94697.82
2018-08-17T06:29:58.622Z,94697.56
2018-08-17T06:32:27.310Z,94694.78
2018-08-17T06:34:56.652Z,94691.29
2018-08-17T06:37:26.281Z,94694.48
2018-08-17T06:39:54.924Z,94700.41
2018-08-17T06:42:23.693Z,94697.09
2018-08-17T06:44:52.429Z,94695.98
2018-08-17T06:47:22.199Z,94697.23
2018-08-17T06:49:51.720Z,94702.34
2018-08-17T06:52:20.565Z,94697.33
2018-08-17T06:54:49.229Z,94692.51
2018-08-17T06:57:17.991Z,94703.64
2018-08-17T06:59:47.687Z,94708.78
2018-08-17T07:02:16.623Z,94702.91
2018-08-17T07:04:45.451Z,94715.06
2018-08-17T07:07:15.037Z,94710.73
2018-08-17T07:09:43.716Z,94713.49
2018-08-17T07:12:12.511Z,94717.41
2018-08-17T07:14:41.193Z,94715.41
2018-08-17T07:17:10.224Z,94716.95
2018-08-17T07:19:39.018Z,94717.86
2018-08-17T07:22:08.148Z,94719.17
2018-08-17T07:24:37.156Z,94710.33
2018-08-17T07:27:05.927Z,94710.26
2018-08-17T07:29:34.732Z,94712.11
2018-08-17T07:32:03.490Z,94705.80
2018-08-17T07:34:32.596Z,94708.17
2018-08-17T07:37:01.312Z,94714.02
2018-08-17T07:39:29.953Z,94712.03
2018-08-17T07:41:58.670Z,94716.86
2018-08-17T07:44:27.341Z,94715.96
2018-08-17T07:46:56.122Z,94718.16
2018-08-17T07:49:24.833Z,94719.22
2018-08-17T07:51:53.505Z,94722.45
2018-08-17T07:54:22.215Z,94724.86
2018-08-17T07:56:50.870Z,94721.22
2018-08-17T07:59:19.582Z,94725.98
2018-08-17T08:01:48.421Z,94710.81
2018-08-17T08:04:17.122Z,94718.25
2018-08-17T08:06:45.950Z,94714.66
2018-08-17T08:09:14.657Z,94715.44
2018-08-17T08:11:43.475Z,94711.98
2018-08-17T08:14:12.497Z,94712.37
2018-08-17T08:16:41.223Z,94706.75
2018-08-17T08:19:13.984Z,94699.62
2018-08-17T08:21:45.083Z,94703.37
2018-08-17T08:24:13.879Z,94694.33
2018-08-17T08:26:42.569Z,94695.64
2018-08-17T08:29:11.352Z,94696.45
2018-08-17T08:31:40.019Z,94693.04
2018-08-17T08:34:08.764Z,94686.45
2018-08-17T08:36:37.435Z,94688.84
2018-08-17T08:39:09.350Z,94684.89
2018-08-17T08:41:38.117Z,94681.39
2018-08-17T08:45:10.251Z,94681.14
2018-08-17T08:47:39.060Z,94681.92
2018-08-17T08:50:07.794Z,94677.36
2018-08-17T08:52:36.563Z,94680.28
2018-08-17T08:55:06.992Z,94679.20
2018-08-17T08:57:35.904Z,94681.82
2018-08-17T09:00:05.690Z,94677.27
2018-08-17T09:02:34.431Z,94680.20
2018-08-17T09:05:03.147Z,94682.25
2018-08-17T09:07:31.905Z,94676.86
2018-08-17T09:10:00.586Z,94680.83
2018-08-17T09:12:29.308Z,94677.34
2018-08-17T09:14:58.082Z,94665.81
2018-08-17T09:17:26.875Z,94667.87
2018-08-17T09:19:55.597Z,94674.53
2018-08-17T09:22:24.367Z,94668.29
2018-08-17T09:24:53.124Z,94669.52
2018-08-17T09:27:21.837Z,94667.41
2018-08-17T09:29:50.555Z,94666.33
2018-08-17T09:32:19.236Z,94663.72
2018-08-17T09:34:47.954Z,94664.14
2018-08-17T09:37:17.505Z,94659.70
2018-08-17T09:40:49.554Z,94654.59
2018-08-17T09:43:18.682Z,94647.81
2018-08-17T09:45:48.064Z,94647.23
2018-08-17T09:48:16.822Z,94648.91
2018-08-17T09:50:45.504Z,94647.00
2018-08-17T09:53:14.214Z,94645.81
2018-08-17T09:55:42.910Z,94644.07
2018-08-17T09:58:11.599Z,94646.30
2018-08-17T10:00:40.395Z,94651.09
2018-08-17T10:03:14.275Z,94638.67
2018-08-17T10:05:43.851Z,94632.41
2018-08-17T10:09:21.276Z,94635.70
2018-08-17T10:11:51.432Z,94632.62
2018-08-17T10:14:20.988Z,94626.70
2018-08-17T10:16:50.142Z,94624.87
2018-08-17T10:19:18.879Z,94624.22
2018-08-17T10:21:53.913Z,94618.61
2018-08-17T10:24:23.108Z,94616.03
2018-08-17T10:26:52.901Z,94614.77
2018-08-17T10:29:22.409Z,94611.02
2018-08-17T10:31:54.130Z,94612.78
2018-08-17T10:34:25.783Z,94611.63
2018-08-17T10:36:56.085Z,94611.41
2018-08-17T10:39:26.591Z,94614.19
2018-08-17T10:41:56.607Z,94606.80
2018-08-17T10:44:26.789Z,94602.96
2018-08-17T10:46:57.246Z,94600.55
2018-08-17T10:49:28.584Z,94613.82
2018-08-17T10:52:00.192Z,94616.78
2018-08-17T10:54:29.638Z,94598.27
2018-08-17T10:57:00.616Z,94609.81
2018-08-17T10:59:30.434Z,94612.30
2018-08-17T11:02:00.578Z,94607.50
2018-08-17T11:04:30.840Z,94613.91
2018-08-17T11:07:00.603Z,94610.75
2018-08-17T11:09:33.658Z,94605.48
2018-08-17T11:12:04.633Z,94602.34
2018-08-17T11:14:34.919Z,94602.47
2018-08-17T11:17:04.888Z,94608.67
2018-08-17T11:19:35.489Z,94607.34
2018-08-17T11:22:04.722Z,94607.16
2018-08-17T11:24:33.491Z,94602.61
2018-08-17T11:27:02.315Z,94602.63
2018-08-17T11:29:31.032Z,94602.98
2018-08-17T11:32:00.154Z,94605.11
2018-08-17T11:34:29.441Z,94599.00
2018-08-17T11:36:58.177Z,94604.31
2018-08-17T11:39:27.308Z,94608.00
2018-08-17T11:41:56.030Z,94605.95
2018-08-17T11:44:24.897Z,94610.30
2018-08-17T11:46:53.731Z,94607.05
2018-08-17T11:49:22.615Z,94611.28
2018-08-17T11:51:51.320Z,94606.20
2018-08-17T11:54:20.107Z,94606.44
2018-08-17T11:56:48.905Z,94600.63
2018-08-17T11:59:17.623Z,94597.95
2018-08-17T12:01:46.428Z,94596.66
2018-08-17T12:04:15.139Z,94595.94
2018-08-17T12:06:43.844Z,94590.13
2018-08-17T12:09:12.597Z,94586.38
2018-08-17T12:11:41.313Z,94583.42
2018-08-17T12:14:10.090Z,94581.81
2018-08-17T12:16:39.308Z,94586.89
2018-08-17T12:19:08.028Z,94581.78
2018-08-17T12:21:39.334Z,94566.05
2018-08-17T12:24:08.133Z,94565.73
2018-08-17T12:26:41.985Z,94563.33
2018-08-17T12:29:10.753Z,94564.34
2018-08-17T12:31:39.476Z,94562.41
2018-08-17T12:34:08.190Z,94563.50
2018-08-17T12:36:37.025Z,94554.54
2018-08-17T12:39:09.446Z,94560.38
2018-08-17T12:41:38.155Z,94563.17
2018-08-17T12:44:06.957Z,94561.66
2018-08-17T12:46:35.732Z,94549.22
2018-08-17T12:49:04.449Z,94555.36
2018-08-17T12:51:33.203Z,94555.25
2018-08-17T12:54:01.963Z,94559.96
2018-08-17T12:56:30.683Z,94551.86
2018-08-17T12:58:59.330Z,94555.73
2018-08-17T13:01:28.121Z,94551.61
2018-08-17T13:03:56.873Z,94551.83
2018-08-17T13:06:25.519Z,94564.27
2018-08-17T13:08:54.474Z,94574.85
2018-08-17T13:11:30.071Z,94577.42
2018-08-17T13:14:04.681Z,94585.66
2018-08-17T13:16:35.236Z,94583.09
2018-08-17T13:19:03.962Z,94586.56
2018-08-17T13:21:32.687Z,94590.65
2018-08-17T13:24:01.791Z,94600.39
2018-08-17T13:26:30.508Z,94600.16
2018-08-17T13:28:59.430Z,94614.91
2018-08-17T13:31:28.189Z,94609.98
2018-08-17T13:33:56.890Z,94632.91
2018-08-17T13:36:25.743Z,94627.39
2018-08-17T13:38:54.580Z,94622.17
2018-08-17T13:41:23.557Z,94627.63
2018-08-17T13:43:52.323Z,94625.48
2018-08-17T13:46:21.076Z,94618.06
2018-08-17T13:48:49.874Z,94613.75
2018-08-17T13:51:18.697Z,94617.57
2018-08-17T13:53:47.408Z,94611.00
2018-08-17T13:56:16.097Z,94613.55
2018-08-17T13:58:44.825Z,94611.94
2018-08-17T14:01:13.516Z,94607.66
2018-08-17T14:03:42.241Z,94604.70
2018-08-17T14:06:10.960Z,94598.66
2018-08-17T14:08:39.641Z,94600.12
2018-08-17T14:11:08.361Z,94598.53
2018-08-17T14:13:37.701Z,94594.84
2018-08-17T14:16:06.620Z,94590.55
2018-08-17T14:18:35.338Z,94598.36
2018-08-17T14:21:04.069Z,94598.36
2018-08-17T14:23:32.767Z,94588.67
2018-08-17T14:26:01.458Z,94589.97
2018-08-17T14:28:30.207Z,94591.87
2018-08-17T14:30:58.937Z,94590.41
2018-08-17T14:33:27.606Z,94588.37
2018-08-17T14:35:56.256Z,94586.98
2018-08-17T14:38:34.756Z,94584.91
2018-08-17T14:41:04.260Z,94587.78
2018-08-17T14:43:33.416Z,94587.47
2018-08-17T14:46:02.259Z,94593.09
2018-08-17T14:48:31.216Z,94589.31
2018-08-17T14:51:00.032Z,94587.31
2018-08-17T14:53:28.720Z,94588.41
2018-08-17T14:55:57.492Z,94584.48
2018-08-17T14:58:26.229Z,94582.20
2018-08-17T15:00:55.039Z,94579.86
2018-08-17T15:03:23.801Z,94579.90
2018-08-17T15:05:52.543Z,94583.34
2018-08-17T15:08:21.317Z,94590.27
2018-08-17T15:10:50.060Z,94587.73
2018-08-17T15:13:18.881Z,94582.23
2018-08-17T15:15:47.681Z,94577.86
2018-08-17T15:18:16.432Z,94580.22
2018-08-17T15:20:45.145Z,94575.73
2018-08-17T15:23:13.941Z,94565.48
2018-08-17T15:25:42.675Z,94569.58
2018-08-17T15:28:11.391Z,94575.39
2018-08-17T15:30:40.089Z,94584.62
2018-08-17T15:33:08.852Z,94585.19
2018-08-17T15:35:37.654Z,94577.83
2018-08-17T15:38:06.471Z,94574.75
2018-08-17T15:40:35.194Z,94568.25
2018-08-17T15:43:10.049Z,94555.27
2018-08-17T15:45:38.972Z,94553.00
2018-08-17T15:48:07.817Z,94554.36
2018-08-17T15:50:36.540Z,94565.02
2018-08-17T15:53:05.232Z,94571.98
2018-08-17T15:55:33.968Z,94579.94
2018-08-17T15:58:02.822Z,94576.16
2018-08-17T16:00:31.741Z,94577.95
2018-08-17T16:03:00.449Z,94572.89
2018-08-17T16:05:29.196Z,94579.41
2018-08-17T16:07:57.901Z,94575.80
2018-08-17T16:10:27.425Z,94573.84
2018-08-17T16:12:56.254Z,94572.67
2018-08-17T16:15:25.062Z,94580.25
2018-08-17T16:17:53.796Z,94576.58
2018-08-17T16:20:22.511Z,94576.84
2018-08-17T16:22:51.224Z,94573.84
2018-08-17T16:25:19.993Z,94578.05
2018-08-17T16:27:48.743Z,94582.87
2018-08-17T16:30:17.593Z,94582.11
2018-08-17T16:32:46.365Z,94585.98
2018-08-17T16:35:15.206Z,94592.84
2018-08-17T16:37:47.147Z,94590.47
2018-08-17T16:40:16.168Z,94594.78
2018-08-17T16:42:44.960Z,94595.90
2018-08-17T16:45:13.791Z,94589.08
2018-08-17T16:47:42.550Z,94593.91
2018-08-17T16:50:11.392Z,94596.59
2018-08-17T16:52:40.611Z,94600.48
2018-08-17T16:55:09.370Z,94603.64
2018-08-17T16:57:38.403Z,94605.23
2018-08-17T17:00:09.042Z,94602.21
2018-08-17T17:02:37.828Z,94606.71
2018-08-17T17:05:07.501Z,94612.63
2018-08-17T17:07:36.197Z,94608.31
2018-08-17T17:10:06.021Z,94607.66
2018-08-17T17:12:34.743Z,94606.41
2018-08-17T17:15:11.655Z,94604.09
2018-08-17T17:17:40.387Z,94605.47
2018-08-17T17:20:09.364Z,94604.42
2018-08-17T17:22:38.145Z,94607.42
2018-08-17T17:25:12.170Z,94605.83
2018-08-17T17:27:41.025Z,94610.30
2018-08-17T17:30:09.777Z,94615.61
2018-08-17T17:32:38.519Z,94616.38
2018-08-17T17:35:07.266Z,94616.09
2018-08-17T17:37:36.071Z,94619.78
2018-08-17T17:40:05.805Z,94612.08
2018-08-17T17:42:34.578Z,94620.04
2018-08-17T17:45:03.370Z,94627.33
2018-08-17T17:47:32.123Z,94628.48
2018-08-17T17:50:00.945Z,94626.84
2018-08-17T17:52:29.724Z,94627.61
2018-08-17T17:54:58.450Z,94643.23
2018-08-17T17:57:27.230Z,94641.66
2018-08-17T17:59:57.678Z,94642.49
2018-08-17T18:02:27.562Z,94652.00
2018-08-17T18:04:56.254Z,94651.52
2018-08-17T18:07:33.438Z,94654.04
2018-08-17T18:10:03.692Z,94656.34
2018-08-17T18:12:32.522Z,94658.49
2018-08-17T18:15:01.260Z,94656.95
2018-08-17T18:17:30.080Z,94661.12
2018-08-17T18:19:58.797Z,94667.23
2018-08-17T18:22:31.314Z,94667.22
2018-08-17T18:25:05.374Z,94673.63
2018-08-17T18:27:34.122Z,94676.03
2018-08-17T18:30:03.874Z,94675.13
2018-08-17T18:32:32.546Z,94677.96
2018-08-17T18:35:01.373Z,94676.58
2018-08-17T18:37:30.080Z,94679.81
2018-08-17T18:39:58.790Z,94679.55
2018-08-17T18:42:27.528Z,94688.28
2018-08-17T18:44:56.239Z,94688.23
2018-08-17T18:47:24.952Z,94695.58
2018-08-17T18:49:53.718Z,94697.33
2018-08-17T18:52:22.512Z,94700.77
2018-08-17T18:54:51.307Z,94695.21
2018-08-17T18:57:20.482Z,94699.62
2018-08-17T18:59:49.239Z,94700.09
2018-08-17T19:02:17.971Z,94703.44
2018-08-17T19:04:46.909Z,94702.88
2018-08-17T19:08:19.707Z,94698.28
2018-08-17T19:10:48.513Z,94701.39
2018-08-17T19:13:17.299Z,94700.03
2018-08-17T19:15:50.309Z,94705.91
2018-08-17T19:18:19.137Z,94706.47
2018-08-17T19:20:47.870Z,94713.71
2018-08-17T19:23:16.738Z,94711.55
2018-08-17T19:25:45.477Z,94712.78
2018-08-17T19:28:14.265Z,94713.23
2018-08-17T19:30:42.987Z,94711.71
2018-08-17T19:33:12.878Z,94709.48
2018-08-17T19:35:46.871Z,94716.86
2018-08-17T19:38:15.653Z,94705.69
2018-08-17T19:40:44.345Z,94707.49
2018-08-17T19:43:12.993Z,94705.69
2018-08-17T19:45:41.741Z,94709.45
2018-08-17T19:48:10.525Z,94702.66
2018-08-17T19:50:39.272Z,94707.30
2018-08-17T19:53:08.003Z,94706.66
2018-08-17T19:55:36.770Z,94709.84
2018-08-17T19:58:05.673Z,94707.45
2018-08-17T20:00:34.396Z,94708.59
2018-08-17T20:03:03.091Z,94704.36
2018-08-17T20:05:31.861Z,94712.28
2018-08-17T20:08:00.594Z,94717.79
2018-08-17T20:10:29.622Z,94718.80
2018-08-17T20:12:58.359Z,94718.83
2018-08-17T20:15:27.118Z,94722.20
2018-08-17T20:17:55.928Z,94735.55
2018-08-17T20:20:24.635Z,94730.32
2018-08-17T20:22:58.193Z,94733.31
2018-08-17T20:25:26.990Z,94730.22
2018-08-17T20:27:55.675Z,94727.53
2018-08-17T20:30:25.288Z,94727.37
2018-08-17T20:32:54.625Z,94727.30
2018-08-17T20:35:23.380Z,94730.60
2018-08-17T20:37:53.461Z,94728.69
2018-08-17T20:40:22.354Z,94734.48
2018-08-17T20:42:51.158Z,94732.50
2018-08-17T20:45:20.457Z,94726.84
2018-08-17T20:47:49.201Z,94732.58
2018-08-17T20:50:19.298Z,94724.66
2018-08-17T20:52:53.471Z,94722.03
2018-08-17T20:55:22.256Z,94718.42
2018-08-17T20:57:52.874Z,94719.53
2018-08-17T21:00:22.768Z,94716.45
2018-08-17T21:02:51.550Z,94715.36
2018-08-17T21:05:20.276Z,94713.27
2018-08-17T21:07:49.734Z,94718.05
2018-08-17T21:10:18.578Z,94736.38
2018-08-17T21:12:48.012Z,94755.97
2018-08-17T21:15:17.038Z,94749.34
2018-08-17T21:17:45.775Z,94744.22
2018-08-17T21:20:14.525Z,94744.34
2018-08-17T21:22:43.327Z,94748.09
2018-08-17T21:25:12.115Z,94744.60
2018-08-17T21:27:40.807Z,94750.16
2018-08-17T21:30:10.011Z,94745.58
2018-08-17T21:32:38.745Z,94744.20
2018-08-17T21:35:08.702Z,94736.45
2018-08-17T21:37:37.798Z,94733.11
2018-08-17T21:40:13.181Z,94734.15
2018-08-17T21:42:41.931Z,94727.52
2018-08-17T21:45:10.624Z,94737.72
2018-08-17T21:47:39.421Z,94736.87
2018-08-17T21:50:12.251Z,94745.09
2018-08-17T21:52:41.024Z,94737.45
2018-08-17T21:55:09.779Z,94731.73
2018-08-17T21:57:38.598Z,94742.35
2018-08-17T22:00:11.220Z,94737.91
2018-08-17T22:02:40.025Z,94737.97
2018-08-17T22:05:14.444Z,94739.27
2018-08-17T22:07:43.215Z,94733.11
2018-08-17T22:10:11.982Z,94738.91
2018-08-17T22:12:40.707Z,94733.52
2018-08-17T22:15:09.467Z,94725.72
2018-08-17T22:17:40.367Z,94725.19
2018-08-17T22:20:10.327Z,94729.97
2018-08-17T22:22:39.219Z,94735.36
2018-08-17T22:25:13.157Z,94728.53
2018-08-17T22:27:41.879Z,94732.48
2018-08-17T22:30:18.990Z,94728.41
2018-08-17T22:32:47.734Z,94726.13
2018-08-17T22:35:16.684Z,94722.69
2018-08-17T22:37:45.399Z,94714.36
2018-08-17T22:40:15.088Z,94715.79
2018-08-17T22:42:45.328Z,94715.61
2018-08-17T22:45:14.003Z,94713.50
2018-08-17T22:47:42.756Z,94717.84
2018-08-17T22:50:11.476Z,94731.28
2018-08-17T22:52:40.331Z,94732.38
2018-08-17T22:55:09.984Z,94731.17
2018-08-17T22:57:38.723Z,94735.02
2018-08-17T23:00:19.483Z,94732.31
2018-08-17T23:02:49.516Z,94729.03
2018-08-17T23:05:19.678Z,94734.60
2018-08-17T23:07:48.435Z,94736.22
2018-08-17T23:10:18.926Z,94732.92
2018-08-17T23:12:48.634Z,94728.47
2018-08-17T23:15:17.424Z,94718.83
2018-08-17T23:17:53.358Z,94722.25
2018-08-17T23:20:27.194Z,94724.37
2018-08-17T23:22:58.034Z,94730.91
2018-08-17T23:25:26.789Z,94739.11
2018-08-17T23:27:55.498Z,94736.83
2018-08-17T23:30:24.228Z,94732.24
2018-08-17T23:32:52.995Z,94723.56
2018-08-17T23:35:21.789Z,94728.88
2018-08-17T23:37:50.587Z,94720.00
2018-08-17T23:40:19.326Z,94721.97
2018-08-17T23:42:48.067Z,94725.63
2018-08-17T23:45:17.900Z,94725.99
2018-08-17T23:47:46.678Z,94720.06
2018-08-17T23:50:16.116Z,94717.91
2018-08-17T23:52:45.005Z,94714.30
2018-08-17T23:55:15.671Z,94718.12
2018-08-17T23:57:44.517Z,94726.63
